createdAt,value
2019-01-17T00:00:12.085Z,29.40
2019-01-17T00:02:39.140Z,29.40
2019-01-17T00:05:06.258Z,29.50
2019-01-17T00:07:33.406Z,29.50
2019-01-17T00:10:00.509Z,29.50
2019-01-17T00:12:27.588Z,29.40
2019-01-17T00:14:54.716Z,29.40
2019-01-17T00:17:21.769Z,29.40
2019-01-17T00:19:48.874Z,29.50
2019-01-17T00:22:15.947Z,29.50
2019-01-17T00:24:43.035Z,29.40
2019-01-17T00:27:10.096Z,29.40
2019-01-17T00:29:37.219Z,29.50
2019-01-17T00:32:04.306Z,29.40
2019-01-17T00:34:34.231Z,29.50
2019-01-17T00:37:01.478Z,29.50
2019-01-17T00:39:28.555Z,29.40
2019-01-17T00:41:55.698Z,29.40
2019-01-17T00:44:22.848Z,29.40
2019-01-17T00:46:49.945Z,29.50
2019-01-17T00:49:17.002Z,29.40
2019-01-17T00:51:44.073Z,29.40
2019-01-17T00:54:11.175Z,29.40
2019-01-17T00:56:38.238Z,29.50
2019-01-17T00:59:05.370Z,29.40
2019-01-17T01:01:32.422Z,29.40
2019-01-17T01:03:59.490Z,29.40
2019-01-17T01:06:26.704Z,29.40
2019-01-17T01:08:53.756Z,29.40
2019-01-17T01:11:20.855Z,29.40
2019-01-17T01:13:47.925Z,29.40
2019-01-17T01:16:15.012Z,29.40
2019-01-17T01:18:42.124Z,29.30
2019-01-17T01:21:09.205Z,29.30
2019-01-17T01:23:36.303Z,29.30
2019-01-17T01:26:03.356Z,29.30
2019-01-17T01:28:30.567Z,29.30
2019-01-17T01:30:57.643Z,29.30
2019-01-17T01:33:24.804Z,29.30
2019-01-17T01:35:51.887Z,29.30
2019-01-17T01:38:20.187Z,29.30
2019-01-17T01:40:47.250Z,29.30
2019-01-17T01:43:14.337Z,29.30
2019-01-17T01:45:41.428Z,29.30
2019-01-17T01:48:08.578Z,29.30
2019-01-17T01:50:35.650Z,29.30
2019-01-17T01:53:02.743Z,29.30
2019-01-17T01:55:29.846Z,29.30
2019-01-17T01:57:56.935Z,29.20
2019-01-17T02:00:24.066Z,29.20
2019-01-17T02:02:51.157Z,29.30
2019-01-17T02:05:18.313Z,29.30
2019-01-17T02:07:45.362Z,29.30
2019-01-17T02:10:12.446Z,29.20
2019-01-17T02:12:39.513Z,29.30
2019-01-17T02:15:06.600Z,29.30
2019-01-17T02:17:33.710Z,29.30
2019-01-17T02:20:00.772Z,29.30
2019-01-17T02:22:27.865Z,29.30
2019-01-17T02:24:54.937Z,29.30
2019-01-17T02:27:22.138Z,29.30
2019-01-17T02:29:49.216Z,29.30
2019-01-17T02:32:16.424Z,29.30
2019-01-17T02:34:43.520Z,29.30
2019-01-17T02:37:10.583Z,29.30
2019-01-17T02:39:37.799Z,29.30
2019-01-17T02:42:04.935Z,29.30
2019-01-17T02:44:32.028Z,29.30
2019-01-17T02:46:59.168Z,29.30
2019-01-17T02:49:26.257Z,29.30
2019-01-17T02:51:53.424Z,29.40
2019-01-17T02:54:20.509Z,29.40
2019-01-17T02:56:47.573Z,29.30
2019-01-17T02:59:14.839Z,29.40
2019-01-17T03:01:41.923Z,29.40
2019-01-17T03:04:09.002Z,29.50
2019-01-17T03:06:36.139Z,29.40
2019-01-17T03:09:03.275Z,29.40
2019-01-17T03:11:30.387Z,29.40
2019-01-17T03:13:57.481Z,29.30
2019-01-17T03:16:24.555Z,29.30
2019-01-17T03:18:51.782Z,29.30
2019-01-17T03:21:18.867Z,29.30
2019-01-17T03:23:45.962Z,29.30
2019-01-17T03:26:13.050Z,29.30
2019-01-17T03:28:40.212Z,29.40
2019-01-17T03:31:07.295Z,29.40
2019-01-17T03:33:34.432Z,29.40
2019-01-17T03:36:01.535Z,29.40
2019-01-17T03:38:28.610Z,29.40
2019-01-17T03:40:55.715Z,29.40
2019-01-17T03:43:22.765Z,29.40
2019-01-17T03:45:49.860Z,29.40
2019-01-17T03:48:16.930Z,29.40
2019-01-17T03:50:44.011Z,29.40
2019-01-17T03:53:11.090Z,29.40
2019-01-17T03:55:38.236Z,29.40
2019-01-17T03:58:05.302Z,29.40
2019-01-17T04:00:32.400Z,29.40
2019-01-17T04:02:59.465Z,29.40
2019-01-17T04:05:26.559Z,29.40
2019-01-17T04:07:53.633Z,29.40
2019-01-17T04:10:20.727Z,29.40
2019-01-17T04:12:47.800Z,29.40
2019-01-17T04:15:14.933Z,29.40
2019-01-17T04:17:42.106Z,29.40
2019-01-17T04:20:09.191Z,29.40
2019-01-17T04:22:36.269Z,29.40
2019-01-17T04:25:03.426Z,29.40
2019-01-17T04:27:30.497Z,29.40
2019-01-17T04:29:57.581Z,29.40
2019-01-17T04:32:24.667Z,29.40
2019-01-17T04:34:51.743Z,29.40
2019-01-17T04:37:18.964Z,29.40
2019-01-17T04:39:46.090Z,29.40
2019-01-17T04:42:13.216Z,29.40
2019-01-17T04:44:40.350Z,29.40
2019-01-17T04:47:07.580Z,29.40
2019-01-17T04:49:34.735Z,29.40
2019-01-17T04:52:01.830Z,29.50
2019-01-17T04:54:28.917Z,29.50
2019-01-17T04:56:55.982Z,29.50
2019-01-17T04:59:23.037Z,29.50
2019-01-17T05:01:50.260Z,29.60
2019-01-17T05:04:17.409Z,29.60
2019-01-17T05:06:44.490Z,29.60
2019-01-17T05:09:11.545Z,29.70
2019-01-17T05:11:38.632Z,29.70
2019-01-17T05:14:05.772Z,29.70
2019-01-17T05:16:32.938Z,29.70
2019-01-17T05:18:59.999Z,29.70
2019-01-17T05:21:27.098Z,29.70
2019-01-17T05:23:54.166Z,29.70
2019-01-17T05:26:21.343Z,29.80
2019-01-17T05:28:48.455Z,29.80
2019-01-17T05:31:15.535Z,29.80
2019-01-17T05:33:42.647Z,29.80
2019-01-17T05:36:09.936Z,29.70
2019-01-17T05:38:37.030Z,29.70
2019-01-17T05:41:04.081Z,29.60
2019-01-17T05:43:31.179Z,29.70
2019-01-17T05:45:58.241Z,29.60
2019-01-17T05:48:25.378Z,29.60
2019-01-17T05:50:52.475Z,29.50
2019-01-17T05:53:19.539Z,29.50
2019-01-17T05:55:46.757Z,29.60
2019-01-17T05:58:13.842Z,29.60
2019-01-17T06:00:41.051Z,29.60
2019-01-17T06:03:08.106Z,29.60
2019-01-17T06:05:35.199Z,29.60
2019-01-17T06:08:02.306Z,29.60
2019-01-17T06:10:29.371Z,29.60
2019-01-17T06:12:56.425Z,29.60
2019-01-17T06:15:23.506Z,29.50
2019-01-17T06:17:50.573Z,29.60
2019-01-17T06:20:17.662Z,29.60
2019-01-17T06:22:44.718Z,29.50
2019-01-17T06:25:11.928Z,29.50
2019-01-17T06:27:39.034Z,29.60
2019-01-17T06:30:06.112Z,29.60
2019-01-17T06:32:33.266Z,29.60
2019-01-17T06:35:00.363Z,29.60
2019-01-17T06:37:27.432Z,29.60
2019-01-17T06:39:54.480Z,29.60
2019-01-17T06:42:21.589Z,29.60
2019-01-17T06:44:51.555Z,29.60
2019-01-17T06:47:18.824Z,29.60
2019-01-17T06:49:45.926Z,29.60
2019-01-17T06:52:13.010Z,29.60
2019-01-17T06:54:40.074Z,29.60
2019-01-17T06:57:07.126Z,29.60
2019-01-17T06:59:34.270Z,29.60
2019-01-17T07:02:01.362Z,29.60
2019-01-17T07:04:28.421Z,29.60
2019-01-17T07:06:55.658Z,29.80
2019-01-17T07:09:22.774Z,29.60
2019-01-17T07:11:49.869Z,29.60
2019-01-17T07:14:16.934Z,29.60
2019-01-17T07:16:44.221Z,30.10
2019-01-17T07:19:11.313Z,29.70
2019-01-17T07:21:38.366Z,29.60
2019-01-17T07:24:05.468Z,29.70
2019-01-17T07:26:32.616Z,29.60
2019-01-17T07:28:59.675Z,29.60
2019-01-17T07:31:26.813Z,29.60
2019-01-17T07:33:53.916Z,29.70
2019-01-17T07:36:21.014Z,29.60
2019-01-17T07:38:48.075Z,29.60
2019-01-17T07:41:15.150Z,29.60
2019-01-17T07:43:42.352Z,29.60
2019-01-17T07:46:09.611Z,29.70
2019-01-17T07:48:36.667Z,29.60
2019-01-17T07:51:03.767Z,29.60
2019-01-17T07:53:30.828Z,29.60
2019-01-17T07:55:57.882Z,29.70
2019-01-17T07:58:25.062Z,29.60
2019-01-17T08:00:52.144Z,29.60
2019-01-17T08:03:19.247Z,29.70
2019-01-17T08:05:46.305Z,29.70
2019-01-17T08:08:13.449Z,29.70
2019-01-17T08:10:40.505Z,29.70
2019-01-17T08:13:07.623Z,29.70
2019-01-17T08:15:34.679Z,29.70
2019-01-17T08:18:01.738Z,29.70
2019-01-17T08:20:28.888Z,29.70
2019-01-17T08:22:55.996Z,29.70
2019-01-17T08:25:23.188Z,29.70
2019-01-17T08:27:50.280Z,29.70
2019-01-17T08:30:17.366Z,29.70
2019-01-17T08:32:44.427Z,29.70
2019-01-17T08:35:11.580Z,29.70
2019-01-17T08:37:38.636Z,29.70
2019-01-17T08:40:05.704Z,29.70
2019-01-17T08:42:33.685Z,29.70
2019-01-17T08:45:00.884Z,29.70
2019-01-17T08:47:27.992Z,29.70
2019-01-17T08:49:56.798Z,29.70
2019-01-17T08:52:23.855Z,29.70
2019-01-17T08:54:51.044Z,30.30
2019-01-17T08:57:18.128Z,29.80
2019-01-17T08:59:45.188Z,29.80
2019-01-17T09:02:12.704Z,29.80
2019-01-17T09:04:39.811Z,30.20
2019-01-17T09:07:07.096Z,29.80
2019-01-17T09:09:34.168Z,29.90
2019-01-17T09:12:01.254Z,29.80
2019-01-17T09:14:28.361Z,29.80
2019-01-17T09:16:55.428Z,29.90
2019-01-17T09:19:22.519Z,29.80
2019-01-17T09:21:49.571Z,29.90
2019-01-17T09:24:16.668Z,29.80
2019-01-17T09:26:43.732Z,29.90
2019-01-17T09:29:10.935Z,29.90
2019-01-17T09:31:38.019Z,29.90
2019-01-17T09:34:05.114Z,29.90
2019-01-17T09:36:32.413Z,29.90
2019-01-17T09:38:59.740Z,29.90
2019-01-17T09:41:26.811Z,29.90
2019-01-17T09:43:53.898Z,29.90
2019-01-17T09:46:20.966Z,29.90
2019-01-17T09:48:48.139Z,29.90
2019-01-17T09:51:15.227Z,29.90
2019-01-17T09:53:42.338Z,29.90
2019-01-17T09:56:14.820Z,29.90
2019-01-17T09:58:38.370Z,29.90
2019-01-17T10:01:05.457Z,29.90
2019-01-17T10:03:32.550Z,29.90
2019-01-17T10:05:59.610Z,29.90
2019-01-17T10:08:26.766Z,30.00
2019-01-17T10:10:53.852Z,29.90
2019-01-17T10:13:20.938Z,29.90
2019-01-17T10:15:47.995Z,29.90
2019-01-17T10:18:15.105Z,29.90
2019-01-17T10:20:42.259Z,30.00
2019-01-17T10:23:09.359Z,30.00
2019-01-17T10:25:36.417Z,30.00
2019-01-17T10:28:03.569Z,30.00
2019-01-17T10:30:30.621Z,30.00
2019-01-17T10:32:57.701Z,30.00
2019-01-17T10:35:24.911Z,30.00
2019-01-17T10:37:51.965Z,30.00
2019-01-17T10:40:19.058Z,30.00
2019-01-17T10:42:46.244Z,30.00
2019-01-17T10:45:13.362Z,30.00
2019-01-17T10:47:40.435Z,30.00
2019-01-17T10:50:07.530Z,30.00
2019-01-17T10:52:34.710Z,30.00
2019-01-17T10:55:01.876Z,30.00
2019-01-17T10:57:28.927Z,30.00
2019-01-17T10:59:56.006Z,30.00
2019-01-17T11:02:23.575Z,30.00
2019-01-17T11:04:50.663Z,30.00
2019-01-17T11:07:17.763Z,30.00
2019-01-17T11:09:44.816Z,30.00
2019-01-17T11:12:11.903Z,30.00
2019-01-17T11:14:39.025Z,30.00
2019-01-17T11:17:06.159Z,30.00
2019-01-17T11:19:33.234Z,30.00
2019-01-17T11:22:00.320Z,30.00
2019-01-17T11:24:27.411Z,30.00
2019-01-17T11:26:54.501Z,30.10
2019-01-17T11:29:21.805Z,30.00
2019-01-17T11:31:48.923Z,30.00
2019-01-17T11:34:16.032Z,30.00
2019-01-17T11:36:43.253Z,30.10
2019-01-17T11:39:10.388Z,30.00
2019-01-17T11:41:37.745Z,30.10
2019-01-17T11:44:04.885Z,30.10
2019-01-17T11:46:32.272Z,30.10
2019-01-17T11:49:01.930Z,30.10
2019-01-17T11:51:29.059Z,30.20
2019-01-17T11:53:56.124Z,30.20
2019-01-17T11:56:23.306Z,30.20
2019-01-17T11:58:50.363Z,30.20
2019-01-17T12:01:17.457Z,30.10
2019-01-17T12:03:44.544Z,30.10
2019-01-17T12:06:11.624Z,30.10
2019-01-17T12:08:39.023Z,30.10
2019-01-17T12:11:06.145Z,30.20
2019-01-17T12:13:33.297Z,30.10
2019-01-17T12:16:00.636Z,30.10
2019-01-17T12:18:27.722Z,30.10
2019-01-17T12:20:54.821Z,30.20
2019-01-17T12:23:21.992Z,30.20
2019-01-17T12:25:49.286Z,30.20
2019-01-17T12:28:16.510Z,30.20
2019-01-17T12:30:43.662Z,30.30
2019-01-17T12:33:10.763Z,30.20
2019-01-17T12:35:37.843Z,30.20
2019-01-17T12:38:04.989Z,30.20
2019-01-17T12:40:32.154Z,30.20
2019-01-17T12:42:59.353Z,30.20
2019-01-17T12:45:26.420Z,30.20
2019-01-17T12:47:53.724Z,30.10
2019-01-17T12:50:20.861Z,30.20
2019-01-17T12:52:47.993Z,30.30
2019-01-17T12:55:15.109Z,30.20
2019-01-17T12:57:42.268Z,30.30
2019-01-17T13:00:09.464Z,30.20
2019-01-17T13:02:36.600Z,30.30
2019-01-17T13:05:03.700Z,30.20
2019-01-17T13:07:30.787Z,30.20
2019-01-17T13:09:57.875Z,30.30
2019-01-17T13:12:25.011Z,30.20
2019-01-17T13:14:52.135Z,30.20
2019-01-17T13:17:19.402Z,30.30
2019-01-17T13:19:46.560Z,30.30
2019-01-17T13:22:13.626Z,30.30
2019-01-17T13:24:40.710Z,30.30
2019-01-17T13:27:07.889Z,30.40
2019-01-17T13:29:34.968Z,30.40
2019-01-17T13:32:02.076Z,30.40
2019-01-17T13:34:29.172Z,30.20
2019-01-17T13:36:56.262Z,30.20
2019-01-17T13:39:23.330Z,30.10
2019-01-17T13:41:50.423Z,30.10
2019-01-17T13:44:17.515Z,30.10
2019-01-17T13:46:44.585Z,30.10
2019-01-17T13:49:11.794Z,30.00
2019-01-17T13:51:38.868Z,30.00
2019-01-17T13:54:06.000Z,30.00
2019-01-17T13:56:33.084Z,30.10
2019-01-17T13:59:00.227Z,30.10
2019-01-17T14:01:27.291Z,30.10
2019-01-17T14:03:54.430Z,30.00
2019-01-17T14:06:21.493Z,30.00
2019-01-17T14:08:48.554Z,30.00
2019-01-17T14:11:15.661Z,30.10
2019-01-17T14:13:42.713Z,30.00
2019-01-17T14:16:12.875Z,30.00
2019-01-17T14:18:39.982Z,30.00
2019-01-17T14:21:07.064Z,30.00
2019-01-17T14:23:34.149Z,30.00
2019-01-17T14:26:01.233Z,30.00
2019-01-17T14:28:28.327Z,30.00
2019-01-17T14:30:55.387Z,30.10
2019-01-17T14:33:22.478Z,30.00
2019-01-17T14:35:49.728Z,30.10
2019-01-17T14:38:16.786Z,30.00
2019-01-17T14:40:43.880Z,30.00
2019-01-17T14:43:11.017Z,30.00
2019-01-17T14:45:38.112Z,30.10
2019-01-17T14:48:05.191Z,30.10
2019-01-17T14:50:33.181Z,30.10
2019-01-17T14:53:00.236Z,30.80
2019-01-17T14:55:27.320Z,30.10
2019-01-17T14:57:54.410Z,30.10
2019-01-17T15:00:21.480Z,30.10
2019-01-17T15:02:48.574Z,30.10
2019-01-17T15:05:15.632Z,30.20
2019-01-17T15:07:42.722Z,30.00
2019-01-17T15:10:09.802Z,30.10
2019-01-17T15:12:36.900Z,30.10
2019-01-17T15:15:03.997Z,30.10
2019-01-17T15:17:31.135Z,30.00
2019-01-17T15:19:58.225Z,30.10
2019-01-17T15:22:25.323Z,30.20
2019-01-17T15:24:52.495Z,30.00
2019-01-17T15:27:19.774Z,30.00
2019-01-17T15:29:46.826Z,30.10
2019-01-17T15:32:14.117Z,30.00
2019-01-17T15:34:41.188Z,30.00
2019-01-17T15:37:08.275Z,30.10
2019-01-17T15:39:35.372Z,30.00
2019-01-17T15:42:02.458Z,30.00
2019-01-17T15:44:29.550Z,30.70
2019-01-17T15:46:56.608Z,30.00
2019-01-17T15:49:23.718Z,30.00
2019-01-17T15:51:50.775Z,30.10
2019-01-17T15:54:17.878Z,30.00
2019-01-17T15:56:44.947Z,30.00
2019-01-17T15:59:12.027Z,30.00
2019-01-17T16:01:39.108Z,30.00
2019-01-17T16:04:06.194Z,30.00
2019-01-17T16:06:33.255Z,30.00
2019-01-17T16:09:00.401Z,30.00
2019-01-17T16:11:27.476Z,30.00
2019-01-17T16:13:54.538Z,30.00
2019-01-17T16:16:21.754Z,30.00
2019-01-17T16:18:48.846Z,30.00
2019-01-17T16:21:15.984Z,30.00
2019-01-17T16:23:43.055Z,30.00
2019-01-17T16:26:10.348Z,30.00
2019-01-17T16:28:37.394Z,30.00
2019-01-17T16:31:04.496Z,30.00
2019-01-17T16:33:31.601Z,29.90
2019-01-17T16:35:58.725Z,30.00
2019-01-17T16:38:25.971Z,30.00
2019-01-17T16:40:53.296Z,30.00
2019-01-17T16:43:20.432Z,30.00
2019-01-17T16:45:47.520Z,30.00
2019-01-17T16:48:14.811Z,30.00
2019-01-17T16:50:41.911Z,30.00
2019-01-17T16:53:09.004Z,30.00
2019-01-17T16:55:36.151Z,30.00
2019-01-17T16:58:03.219Z,30.00
2019-01-17T17:00:30.309Z,30.00
2019-01-17T17:02:57.375Z,30.00
2019-01-17T17:05:24.508Z,30.00
2019-01-17T17:07:51.568Z,30.00
2019-01-17T17:10:18.671Z,30.00
2019-01-17T17:12:45.792Z,30.00
2019-01-17T17:15:12.914Z,30.00
2019-01-17T17:17:40.206Z,30.00
2019-01-17T17:20:07.276Z,29.90
2019-01-17T17:22:34.376Z,30.00
2019-01-17T17:25:01.427Z,29.90
2019-01-17T17:27:28.620Z,30.00
2019-01-17T17:29:55.684Z,30.00
2019-01-17T17:32:22.935Z,30.00
2019-01-17T17:34:50.006Z,30.00
2019-01-17T17:37:17.182Z,30.00
2019-01-17T17:39:44.297Z,29.90
2019-01-17T17:42:11.447Z,30.00
2019-01-17T17:44:38.511Z,30.00
2019-01-17T17:47:05.782Z,29.90
2019-01-17T17:49:32.888Z,29.90
2019-01-17T17:51:59.978Z,29.90
2019-01-17T17:54:27.134Z,30.00
2019-01-17T17:57:02.206Z,30.00
2019-01-17T17:59:28.315Z,30.00
2019-01-17T18:02:06.628Z,30.00
2019-01-17T18:04:45.878Z,30.10
2019-01-17T18:07:21.988Z,30.10
2019-01-17T18:09:47.625Z,30.10
2019-01-17T18:12:14.682Z,30.10
2019-01-17T18:14:41.849Z,30.10
2019-01-17T18:17:08.938Z,30.10
2019-01-17T18:19:36.030Z,30.10
2019-01-17T18:22:03.092Z,30.10
2019-01-17T18:24:30.223Z,30.10
2019-01-17T18:26:57.570Z,30.10
2019-01-17T18:29:24.824Z,30.10
2019-01-17T18:31:51.904Z,30.10
2019-01-17T18:34:19.058Z,30.10
2019-01-17T18:36:46.277Z,30.10
2019-01-17T18:39:13.465Z,30.10
2019-01-17T18:41:40.578Z,30.10
2019-01-17T18:44:07.669Z,30.00
2019-01-17T18:46:34.865Z,30.00
2019-01-17T18:49:01.980Z,30.10
2019-01-17T18:51:29.060Z,30.10
2019-01-17T18:53:56.245Z,30.30
2019-01-17T18:56:23.319Z,30.10
2019-01-17T18:58:51.553Z,30.10
2019-01-17T19:01:18.604Z,30.20
2019-01-17T19:03:55.277Z,30.20
2019-01-17T19:06:21.506Z,30.20
2019-01-17T19:08:48.814Z,30.20
2019-01-17T19:11:16.023Z,30.10
2019-01-17T19:13:43.103Z,30.10
2019-01-17T19:16:10.295Z,30.20
2019-01-17T19:18:37.395Z,30.40
2019-01-17T19:21:04.457Z,30.40
2019-01-17T19:23:31.573Z,30.50
2019-01-17T19:25:58.637Z,30.40
2019-01-17T19:28:26.013Z,30.30
2019-01-17T19:30:53.538Z,30.50
2019-01-17T19:33:20.678Z,30.40
2019-01-17T19:35:47.744Z,30.30
2019-01-17T19:38:14.814Z,30.30
2019-01-17T19:40:42.085Z,30.30
2019-01-17T19:43:09.289Z,30.30
2019-01-17T19:45:36.397Z,30.20
2019-01-17T19:48:03.517Z,30.20
2019-01-17T19:50:30.672Z,30.20
2019-01-17T19:52:57.803Z,30.20
2019-01-17T19:55:24.869Z,30.20
2019-01-17T19:57:52.333Z,30.20
2019-01-17T20:00:19.622Z,30.20
2019-01-17T20:02:46.745Z,30.30
2019-01-17T20:05:13.970Z,30.20
2019-01-17T20:07:41.040Z,30.30
2019-01-17T20:10:08.170Z,30.30
2019-01-17T20:12:35.558Z,30.20
2019-01-17T20:15:02.625Z,30.30
2019-01-17T20:17:30.630Z,30.30
2019-01-17T20:19:57.911Z,30.20
2019-01-17T20:22:25.059Z,30.20
2019-01-17T20:24:52.297Z,30.20
2019-01-17T20:27:19.488Z,30.20
2019-01-17T20:29:46.717Z,30.20
2019-01-17T20:32:18.762Z,30.30
2019-01-17T20:34:42.649Z,30.30
2019-01-17T20:37:09.834Z,30.30
2019-01-17T20:39:36.894Z,30.20
2019-01-17T20:42:04.001Z,30.20
2019-01-17T20:44:31.150Z,30.20
2019-01-17T20:46:58.257Z,30.20
2019-01-17T20:49:25.325Z,30.10
2019-01-17T20:51:52.528Z,30.30
2019-01-17T20:54:19.592Z,30.40
2019-01-17T20:56:46.684Z,30.30
2019-01-17T20:59:13.759Z,30.20
2019-01-17T21:01:40.860Z,30.40
2019-01-17T21:04:07.948Z,30.30
2019-01-17T21:06:35.271Z,30.30
2019-01-17T21:09:02.335Z,30.30
2019-01-17T21:11:29.454Z,30.40
2019-01-17T21:13:56.600Z,30.40
2019-01-17T21:16:23.682Z,30.40
2019-01-17T21:18:50.773Z,30.30
2019-01-17T21:21:17.882Z,30.40
2019-01-17T21:23:44.942Z,30.40
2019-01-17T21:26:12.234Z,30.30
2019-01-17T21:28:39.550Z,30.20
2019-01-17T21:31:06.745Z,30.20
2019-01-17T21:33:34.161Z,30.20
2019-01-17T21:36:01.256Z,30.20
2019-01-17T21:38:28.428Z,30.10
2019-01-17T21:40:55.485Z,30.20
2019-01-17T21:43:22.554Z,30.00
2019-01-17T21:45:49.624Z,30.00
2019-01-17T21:48:16.875Z,30.10
2019-01-17T21:50:43.944Z,30.00
2019-01-17T21:53:11.037Z,30.00
2019-01-17T21:55:38.179Z,30.00
2019-01-17T21:58:05.492Z,30.00
2019-01-17T22:00:32.639Z,30.00
2019-01-17T22:02:59.704Z,30.00
2019-01-17T22:05:26.827Z,30.60
2019-01-17T22:07:53.924Z,30.00
2019-01-17T22:10:20.991Z,30.00
2019-01-17T22:12:48.082Z,30.10
2019-01-17T22:15:15.148Z,30.00
2019-01-17T22:17:42.258Z,30.00
2019-01-17T22:20:09.362Z,30.00
2019-01-17T22:22:36.430Z,30.00
2019-01-17T22:25:03.520Z,30.00
2019-01-17T22:27:30.637Z,30.00
2019-01-17T22:29:57.742Z,29.90
2019-01-17T22:32:25.068Z,29.90
2019-01-17T22:34:52.148Z,29.90
2019-01-17T22:37:19.504Z,29.90
2019-01-17T22:39:46.570Z,29.90
2019-01-17T22:42:13.703Z,29.90
2019-01-17T22:44:40.771Z,29.50
2019-01-17T22:47:07.883Z,29.90
2019-01-17T22:49:34.995Z,29.90
2019-01-17T22:52:02.246Z,29.90
2019-01-17T22:54:29.326Z,29.90
2019-01-17T22:56:56.442Z,29.80
2019-01-17T22:59:23.507Z,29.80
2019-01-17T23:01:50.603Z,29.90
2019-01-17T23:04:17.718Z,30.30
2019-01-17T23:06:44.770Z,29.90
2019-01-17T23:09:11.855Z,29.80
2019-01-17T23:11:38.951Z,29.80
2019-01-17T23:14:06.014Z,29.70
2019-01-17T23:16:33.260Z,29.80
2019-01-17T23:19:00.491Z,29.80
2019-01-17T23:21:27.578Z,29.70
2019-01-17T23:23:54.688Z,29.70
2019-01-17T23:26:21.736Z,29.80
2019-01-17T23:28:48.802Z,29.70
2019-01-17T23:31:15.966Z,29.70
2019-01-17T23:33:43.023Z,29.80
2019-01-17T23:36:10.129Z,29.70
2019-01-17T23:38:37.217Z,29.70
2019-01-17T23:41:04.310Z,29.70
2019-01-17T23:43:31.386Z,29.60
2019-01-17T23:45:58.650Z,29.70
2019-01-17T23:48:25.797Z,29.60
2019-01-17T23:50:52.924Z,29.60
2019-01-17T23:53:20.009Z,29.70
2019-01-17T23:55:47.252Z,29.60
2019-01-17T23:58:14.325Z,29.60
